Grand Marais-Cook County, MN

9:21 PM CDT on July 23, 2014 (GMT -0500)
Grand Marais Airport (KCKC) Elev 1798 ft | 47.84 °N, 90.38 °W | Change Station

Current weather conditions updated 8 minutes ago

Clear
Clear
52 °F
Feels Like 52 °F
N
4
Wind Variable Wind from NNW

Tomorrow is forecast to be Warmer than today.

Today
High -- | Low -- °F
--% Chance of Precip.
Yesterday
High -- | Low -- °F
Precip. -- in
5:27 AM 8:48 PM
Waning Crescent, 7% visible
Pressure 30.22 in
Visibility 10.0 miles
Clouds Clear
Dew Point 48 °F
Humidity 88%
Rainfall 0.00 in
Snow Depth Not available.
UV 0 out of 12
Pollen 5.20 out of 12
Air Quality Not available.
Flu Activity Not available.
METAR KCKC 240213Z AUTO 34003KT 10SM CLR 11/09 A3022 RMK AO2

More Conditions Fewer Conditions

Pressure 30.22 in
Visibility 10.0 miles
Clouds Clear
Dew Point 48 °F
Humidity 88%
Rainfall 0.00 in
Snow Depth Not available.
UV 0 out of 12
Pollen 5.20 out of 12
Air Quality Not available.
Flu Activity Not available.
METAR KCKC 240213Z AUTO 34003KT 10SM CLR 11/09 A3022 RMK AO2

More Conditions Fewer Conditions

10-Day Weather Forecast

Almanac

Astronomy

Jul. 23, 2014 Rise Set
Actual Time 5:27 AM CDT 8:48 PM CDT
Civil Twilight 4:49 AM CDT 9:25 PM CDT
Nautical Twilight 3:59 AM CDT 10:15 PM CDT
Astronomical Twilight 2:54 AM CDT 11:19 PM CDT
Moon 2:48 AM CDT (7/23) 6:15 PM CDT (7/23)
Length of Visible Light 16h 36m
Length of Day
15h 20m
Tomorrow will be 2m 21s shorter.
Waning Crescent, 7% of the Moon is Illuminated
Today
Waning Crescent
Jul 26
New
Aug 3
First Quarter
Aug 10
Full
Aug 17
Last Quarter

Today's Extremes

State Highs State Lows

Community

WunderPhotos

Upload Photos

1,736,853 photos uploaded!

Nearby

Snow Depth

Station Depth Elevation
No new snow has been reported.

Earthquake Activity

City Distance Mag. Time & Date
No recent earthquake activity has been reported nearby.
Minimum magnitude displayed is 2.5.

Coastal Water Temperatures

Place Temperature
No Stations Reporting

Nearby Weather Stations

Station Location Temp. Dew Point Humidity Wind Precip. Elev Updated Type
RAWS SUPERIOR #1 MN, Croftville, MN 57 °F 52 °F 84% NW  at  1 mph 0.00 in / hr 1000 ft 8:39 PM CDT MADIS
Hungry Jack Lake, BWCA, MN 55.4 °F 53 °F 92% West  at  0.0 mph 0.00 in / hr 1698 ft 9:16 PM CDT Normal
Clearwater Lake, BWCA, MN, Grand Marais, MN 53.1 °F 51 °F 93% East  at  0.0 mph - / hr 1709 ft 9:16 PM CDT Normal
SundewTech, Grand Marais, MN 53.6 °F 50 °F 86% SE  at  0.0 mph 0.00 in / hr 676 ft 9:21 PM CDT Rapid Fire
Tucker Lake, Grand Marais, MN 54.8 °F 52 °F 90% North  at  0.0 mph 0.00 in / hr 1870 ft 9:21 PM CDT Rapid Fire

Show More Stations Show Fewer Stations